createdAt,value
2022-12-16T05:52:01.284Z,-0.72
2022-12-16T05:57:21.948Z,-0.82
2022-12-16T06:02:38.822Z,-0.88
2022-12-16T14:40:40.204Z,1.07
2022-12-16T14:45:57.103Z,0.93
2022-12-16T14:51:26.123Z,0.92
2022-12-16T14:56:41.787Z,0.86
2022-12-16T15:01:57.330Z,0.82
2022-12-16T15:07:12.895Z,0.70
2022-12-16T15:12:29.799Z,0.69
2022-12-16T15:17:59.797Z,0.67
2022-12-16T17:24:49.303Z,0.63
2022-12-16T17:35:37.383Z,0.65
2022-12-16T17:40:57.335Z,0.65
2022-12-16T17:46:32.862Z,0.64
2022-12-16T17:51:57.271Z,0.58
2022-12-16T17:57:13.679Z,0.49
2022-12-16T18:02:31.474Z,0.72
2022-12-16T18:08:00.716Z,0.54
2022-12-16T18:13:20.840Z,0.78
2022-12-16T18:18:44.446Z,0.62
2022-12-16T18:24:02.266Z,0.91
2022-12-16T18:29:25.855Z,0.83
2022-12-16T18:34:48.491Z,0.94
2022-12-16T18:40:04.584Z,0.88
2022-12-16T18:45:24.150Z,0.95
2022-12-16T18:50:39.559Z,1.06
2022-12-16T18:55:54.218Z,1.05
2022-12-16T19:01:09.604Z,1.09
2022-12-16T19:06:24.792Z,1.14
2022-12-16T19:11:39.982Z,1.08
2022-12-16T19:16:55.436Z,1.16
2022-12-16T19:22:10.783Z,1.20
2022-12-16T19:27:26.523Z,1.14
2022-12-16T19:32:41.187Z,1.19
2022-12-16T19:37:57.016Z,1.23
2022-12-16T19:43:12.423Z,1.20
2022-12-16T19:48:27.510Z,1.25
2022-12-16T19:53:42.572Z,1.22
2022-12-16T19:58:57.653Z,1.22
2022-12-16T20:04:12.643Z,1.23
2022-12-16T20:09:27.535Z,1.23
2022-12-16T20:14:42.789Z,1.24
2022-12-16T20:19:57.696Z,1.27
2022-12-16T20:25:14.062Z,1.30
2022-12-16T20:30:29.376Z,1.30
2022-12-16T20:35:44.625Z,1.30
2022-12-16T20:40:59.528Z,1.33
2022-12-16T20:46:14.905Z,1.34
2022-12-16T20:51:30.343Z,1.30
2022-12-16T20:56:49.611Z,1.27
2022-12-16T21:07:42.065Z,1.24
2022-12-16T21:13:00.619Z,1.29
2022-12-16T21:18:19.760Z,1.35
2022-12-16T21:23:34.827Z,1.31
2022-12-16T21:28:49.818Z,1.36
2022-12-16T21:34:04.931Z,1.32
2022-12-16T21:39:22.665Z,1.35
2022-12-16T21:44:38.109Z,1.28
2022-12-16T21:49:56.072Z,1.19
2022-12-16T21:55:24.859Z,1.11
2022-12-16T22:00:39.824Z,1.10
2022-12-16T22:05:56.067Z,1.09
2022-12-16T22:11:11.734Z,0.91
2022-12-16T22:16:27.995Z,0.94
2022-12-16T22:21:43.322Z,0.77
2022-12-16T22:26:58.715Z,0.81
2022-12-16T22:32:14.349Z,0.62
2022-12-16T22:37:29.896Z,0.52
2022-12-16T22:42:46.260Z,0.55
2022-12-16T22:48:01.676Z,0.40
2022-12-16T22:53:17.400Z,0.25
2022-12-16T22:58:32.515Z,0.18
2022-12-16T23:03:48.232Z,0.13
2022-12-16T23:09:03.764Z,0.14
2022-12-16T23:14:18.959Z,0.07
2022-12-16T23:19:34.183Z,0.00
2022-12-16T23:24:49.511Z,0.02
2022-12-16T23:30:04.937Z,0.05
2022-12-16T23:35:20.440Z,0.02
2022-12-16T23:40:36.060Z,-0.05
2022-12-16T23:45:57.318Z,-0.06
2022-12-16T23:51:14.590Z,-0.04
2022-12-16T23:56:30.267Z,-0.01
